LGKRDTTA

Guest
Details From LGKR - IOANNIS KAPODISTRIAS INTL
To DTTA - CARTHAGE
Flight Number -
Tags generated
Created
Modified
Stats Distance 488 nm / 904 km
Max Altitude 34,000 ft / 10,363 m
Waypoints 11
Social Downloads 1
Likes 0
Share VATSIM

Download

Looking for another format? Having issues loading an existing format? Contact us
Advertisement - Login to hide

Notes

Basic altitude profile: - Ascent Rate: 2500ft/min - Ascent Speed: 250kts - Cruise Altitude: 35000ft - Cruise Speed: 420kts - Descent Rate: 1500ft/min - Descent Speed: 250kts Options: - Use NATs: yes - Use PACOTS: yes - Use low airways: yes - Use high airways: yes

Route

LGKR GEMVI UL869 LOPKO DTTA

ID Type Via Altitude Latitude Longitude Leg Dist Tot Dist Heading (true) Name
O LGKR APT - 0 ft / 0 m 39.60178˚ 19.91191˚ - 0 nm - IOANNIS KAPODISTRIAS INTL
GEMVI FIX - 34,000 ft / 10,363 m 39.11278˚ 17.80528˚ 102 nm 102 nm 254° / 253° -
CRN VOR UL869 (AWY-HI) 34,000 ft / 10,363 m 38.99611˚ 17.08305˚ 34 nm 136 nm 258° / 258° CROTONE VOR-DME
CDC VOR UL869 (AWY-HI) 34,000 ft / 10,363 m 38.75583˚ 16.36917˚ 36 nm 172 nm 247° / 246° CARAFFA DI CATANZARO VORTAC
PEROS FIX UL869 (AWY-HI) 34,000 ft / 10,363 m 38.63750˚ 15.82028˚ 26 nm 199 nm 255° / 254° -
PIGER FIX UL869 (AWY-HI) 34,000 ft / 10,363 m 38.54861˚ 15.40611˚ 20 nm 219 nm 255° / 255° -
PELEN FIX UL869 (AWY-HI) 34,000 ft / 10,363 m 38.33472˚ 14.45389˚ 46 nm 266 nm 254° / 254° -
PAL VOR UL869 (AWY-HI) 34,000 ft / 10,363 m 38.03389˚ 13.17750˚ 62 nm 329 nm 254° / 253° PALERMO VOR-DME
TRP VOR UL869 (AWY-HI) 26,000 ft / 7,925 m 37.89609˚ 12.51333˚ 32 nm 361 nm 255° / 255° TRAPANI VORTAC
LOPKO FIX UL869 (AWY-HI) 22,500 ft / 6,858 m 37.66611˚ 12.18028˚ 20 nm 382 nm 229° / 229° -
O DTTA APT - 0 ft / 0 m 36.85127˚ 10.23003˚ 105 nm 488 nm 243° / 242° CARTHAGE

Altitude Profile

Advertisement - Login to hide

Weather


0- 5 10 15 20 25 30 35+ Temperature / ° C

Clouds and Precipitation
Forecast for 2017-12-15 06:00 UTC. Updated an hour ago

Ground ~20,000 ft ~40,000 ft Winds

LGKR

Details ICAO LGKR (CFU)
Name IOANNIS KAPODISTRIAS INTL
Region Greece
Timezone Europe/Athens (UTC+2.0)
Stats Elevation 6 ft / 2 m (AMSL)
Location 39.601779° 19.911908°
Runways 1
Magnetic Variation 4.098° E

METAR

LGKR 150220Z 16007KT 9999 FEW020 SCT030 BKN080 13/10 Q1016 NOSIG

Decode

TAF

TAF LGKR 142300Z 1500/1524 16012KT 9999 SCT020 SCT080 BECMG 1510/1512 17015G25KT PROB40 TEMPO 1502/1524 5000 RA BKN025 BKN080 PROB30 TEMPO 1519/1524 4000 TSRA FEW008 FEW018CB BKN020 BKN080

Decode

Departure Runways

ID Width Length Bearing (true) Bearing (mag) Surface Threshold Offset Overrun Length
17 148 ft / 45 m 7,815 ft / 2,382 m 168.81° 164.71° Asphalt 1,348 ft / 411 m 0 ft / 0 m
35 148 ft / 45 m 7,815 ft / 2,382 m 348.81° 344.71° Asphalt 213 ft / 65 m 0 ft / 0 m

DTTA

Details ICAO DTTA (TUN)
Name CARTHAGE
Region Tunisia
Timezone Africa/Tunis (UTC+1.0)
Stats Elevation 22 ft / 7 m (AMSL)
Location 36.851267° 10.230027°
Runways 2
Magnetic Variation 2.403° E

METAR

DTTA 150230Z 16005KT 9999 FEW026 08/02 Q1016 NOSIG

Decode

TAF

TAF DTTA 142300Z 1500/1524 24003KT 9999 FEW026= TAF DTMB 142300Z 1500/1524 17003KT 8000 NSC BECMG 1507/1509 23012KT

Decode

Destination Runways

ID Width Length Bearing (true) Bearing (mag) Surface Threshold Offset Overrun Length
01 148 ft / 45 m 10,502 ft / 3,201 m 12.29° 9.89° Asphalt 0 ft / 0 m 197 ft / 60 m
11 148 ft / 45 m 9,345 ft / 2,848 m 112.55° 110.15° Asphalt 0 ft / 0 m 643 ft / 196 m
19 148 ft / 45 m 10,502 ft / 3,201 m 192.29° 189.89° Asphalt 0 ft / 0 m 197 ft / 60 m
29 148 ft / 45 m 9,345 ft / 2,848 m 292.57° 290.17° Asphalt 657 ft / 200 m 197 ft / 60 m

Approach Navaids

Runway Type Ident Frequency Range Bearing (true) Bearing (mag) Slope Elevation
01 Glidescope TBL 111.10 MHz 10 nm / 19 km 10.00° 7.60° 3.00° 22 ft / 7 m (AMSL)
01 DME TBL 111.10 MHz 18 nm / 33 km - - - 22 ft / 7 m (AMSL)
19 Localiser TSI 110.30 MHz 18 nm / 33 km 192.29° 189.89° - 13 ft / 4 m (AMSL)
19 Glidescope TSI 110.30 MHz 10 nm / 19 km 192.29° 189.89° 3.00° 22 ft / 7 m (AMSL)
29 Localiser TKE 108.50 MHz 18 nm / 33 km 292.54° 290.14° - 22 ft / 7 m (AMSL)
29 Glidescope TKE 108.50 MHz 10 nm / 19 km 292.56° 290.15° 3.00° 22 ft / 7 m (AMSL)
29 DME TKE 108.50 MHz 18 nm / 33 km - - - 22 ft / 7 m (AMSL)